Time,TemperatureF,DewpointF,PressureIn,WindDirection,WindDirectionDegrees,WindSpeedMPH,WindSpeedGustMPH,Humidity,HourlyPrecipIn,Conditions,Clouds,dailyrainin,SolarRadiationWatts/m^2,SoftwareType,DateUTC
2013-01-20 00:04:00,44.6,24.0,30.31,NNW,329,0.0,1.0,45,0.00,,,0.00,0,weatherlink.com 1.10,2013-01-20 08:04:00,
2013-01-20 00:19:00,43.0,25.0,30.31,NNW,329,1.0,2.0,50,0.00,,,0.00,0,weatherlink.com 1.10,2013-01-20 08:19:00,
2013-01-20 00:34:00,42.0,25.0,30.30,NNW,329,0.0,2.0,51,0.00,,,0.00,0,weatherlink.com 1.10,2013-01-20 08:34:00,
2013-01-20 00:49:00,41.8,26.0,30.31,NNW,329,0.0,2.0,53,0.00,,,0.00,0,weatherlink.com 1.10,2013-01-20 08:49:00,
2013-01-20 01:04:00,41.8,24.0,30.31,NNW,330,0.0,3.0,50,0.00,,,0.00,0,weatherlink.com 1.10,2013-01-20 09:04:00,
2013-01-20 01:19:00,42.8,25.0,30.30,NNW,330,0.0,1.0,49,0.00,,,0.00,0,weatherlink.com 1.10,2013-01-20 09:19:00,
2013-01-20 01:34:00,43.1,22.0,30.30,NNW,330,0.0,2.0,44,0.00,,,0.00,0,weatherlink.com 1.10,2013-01-20 09:34:00,
2013-01-20 01:49:00,42.2,26.0,30.30,NNW,330,0.0,0.0,52,0.00,,,0.00,0,weatherlink.com 1.10,2013-01-20 09:49:00,
2013-01-20 02:04:00,39.5,26.0,30.30,NNW,330,0.0,2.0,58,0.00,,,0.00,0,weatherlink.com 1.10,2013-01-20 10:04:00,
2013-01-20 02:19:00,40.1,25.0,30.30,NNW,330,0.0,2.0,56,0.00,,,0.00,0,weatherlink.com 1.10,2013-01-20 10:19:00,
2013-01-20 02:34:00,39.6,26.0,30.30,NNW,330,0.0,3.0,59,0.00,,,0.00,0,weatherlink.com 1.10,2013-01-20 10:34:00,
2013-01-20 02:49:00,40.0,25.0,30.30,NNW,330,0.0,2.0,56,0.00,,,0.00,0,weatherlink.com 1.10,2013-01-20 10:49:00,
2013-01-20 03:04:00,39.9,26.0,30.30,NNW,330,0.0,2.0,57,0.00,,,0.00,0,weatherlink.com 1.10,2013-01-20 11:04:00,
2013-01-20 03:19:00,39.1,25.0,30.30,NNW,330,0.0,3.0,57,0.00,,,0.00,0,weatherlink.com 1.10,2013-01-20 11:19:00,
2013-01-20 03:34:00,40.5,24.0,30.30,NNW,330,2.0,3.0,53,0.00,,,0.00,0,weatherlink.com 1.10,2013-01-20 11:34:00,
2013-01-20 03:49:00,42.3,24.0,30.30,NW,321,0.0,3.0,48,0.00,,,0.00,0,weatherlink.com 1.10,2013-01-20 11:49:00,
2013-01-20 04:04:00,40.5,24.0,30.29,NW,321,1.0,3.0,52,0.00,,,0.00,0,weatherlink.com 1.10,2013-01-20 12:04:00,
2013-01-20 04:19:00,40.9,24.0,30.29,NW,321,0.0,2.0,52,0.00,,,0.00,0,weatherlink.com 1.10,2013-01-20 12:19:00,
2013-01-20 04:38:00,-999.0,-99.9,30.29,North,-999,-999.0,-999.0,-999,0.00,,,0.00,,weatherlink.com 1.10,2013-01-20 12:38:00,
2013-01-20 04:49:00,-999.0,-99.9,30.29,North,-999,-999.0,-999.0,-999,0.00,,,0.00,,weatherlink.com 1.10,2013-01-20 12:49:00,
2013-01-20 05:04:00,-999.0,-99.9,30.29,North,-999,-999.0,-999.0,-999,0.00,,,0.00,,weatherlink.com 1.10,2013-01-20 13:04:00,
2013-01-20 05:19:00,-999.0,-99.9,30.29,North,-999,-999.0,-999.0,-999,0.00,,,0.00,,weatherlink.com 1.10,2013-01-20 13:19:00,
2013-01-20 05:34:00,-999.0,-99.9,30.29,North,-999,-999.0,-999.0,-999,0.00,,,0.00,,weatherlink.com 1.10,2013-01-20 13:34:00,
2013-01-20 05:50:00,-999.0,-99.9,30.30,North,-999,-999.0,-999.0,-999,0.00,,,0.00,,weatherlink.com 1.10,2013-01-20 13:50:00,
2013-01-20 06:05:00,37.3,25.0,30.30,NW,324,0.0,1.0,61,0.00,,,0.00,0,weatherlink.com 1.10,2013-01-20 14:05:00,
2013-01-20 06:20:00,37.2,25.0,30.30,NW,324,2.0,2.0,62,0.00,,,0.00,0,weatherlink.com 1.10,2013-01-20 14:20:00,
2013-01-20 06:35:00,38.8,25.0,30.30,NW,324,1.0,3.0,57,0.00,,,0.00,0,weatherlink.com 1.10,2013-01-20 14:35:00,
2013-01-20 06:50:00,39.5,24.0,30.31,NW,324,0.0,2.0,55,0.00,,,0.00,0,weatherlink.com 1.10,2013-01-20 14:50:00,
2013-01-20 07:05:00,39.7,24.0,30.31,NW,324,0.0,2.0,54,0.00,,,0.00,9,weatherlink.com 1.10,2013-01-20 15:05:00,
2013-01-20 07:20:00,39.4,25.0,30.31,NW,324,0.0,1.0,57,0.00,,,0.00,14,weatherlink.com 1.10,2013-01-20 15:20:00,
2013-01-20 07:35:00,39.9,26.0,30.31,NW,324,1.0,2.0,58,0.00,,,0.00,21,weatherlink.com 1.10,2013-01-20 15:35:00,
2013-01-20 07:50:00,42.0,26.0,30.31,NW,324,1.0,1.0,54,0.00,,,0.00,44,weatherlink.com 1.10,2013-01-20 15:50:00,
2013-01-20 08:05:00,45.3,28.0,30.31,NW,324,0.0,2.0,52,0.00,,,0.00,183,weatherlink.com 1.10,2013-01-20 16:05:00,
2013-01-20 08:20:00,49.2,33.0,30.32,NW,324,0.0,1.0,54,0.00,,,0.00,243,weatherlink.com 1.10,2013-01-20 16:20:00,
2013-01-20 08:35:00,55.6,32.0,30.31,NW,324,0.0,2.0,41,0.00,,,0.00,297,weatherlink.com 1.10,2013-01-20 16:35:00,
2013-01-20 08:50:00,61.4,25.0,30.31,NW,324,0.0,1.0,25,0.00,,,0.00,345,weatherlink.com 1.10,2013-01-20 16:50:00,
2013-01-20 09:05:00,64.7,21.0,30.31,NW,324,0.0,0.0,19,0.00,,,0.00,392,weatherlink.com 1.10,2013-01-20 17:05:00,
2013-01-20 09:20:00,66.2,23.0,30.31,NW,324,0.0,0.0,19,0.00,,,0.00,406,weatherlink.com 1.10,2013-01-20 17:20:00,
2013-01-20 09:35:00,-999.0,-99.9,30.31,North,-999,-999.0,-999.0,-999,0.00,,,0.00,,weatherlink.com 1.10,2013-01-20 17:35:00,
2013-01-20 09:50:00,71.9,23.0,30.31,NW,324,0.0,2.0,16,0.00,,,0.00,508,weatherlink.com 1.10,2013-01-20 17:50:00,
2013-01-20 10:05:00,73.2,26.0,30.30,ESE,108,0.0,3.0,17,0.00,,,0.00,541,weatherlink.com 1.10,2013-01-20 18:05:00,
2013-01-20 10:20:00,74.4,22.0,30.30,ESE,115,0.0,3.0,14,0.00,,,0.00,570,weatherlink.com 1.10,2013-01-20 18:20:00,
2013-01-20 10:36:00,73.8,22.0,30.29,NNW,336,5.0,5.0,14,0.00,,,0.00,596,weatherlink.com 1.10,2013-01-20 18:36:00,
2013-01-20 10:51:00,74.2,22.0,30.28,NNW,331,3.0,5.0,14,0.00,,,0.00,617,weatherlink.com 1.10,2013-01-20 18:51:00,
2013-01-20 11:06:00,74.6,21.0,30.27,NW,311,3.0,6.0,13,0.00,,,0.00,635,weatherlink.com 1.10,2013-01-20 19:06:00,
2013-01-20 11:21:00,75.3,17.0,30.25,NNW,348,0.0,7.0,11,0.00,,,0.00,650,weatherlink.com 1.10,2013-01-20 19:21:00,
2013-01-20 11:36:00,76.5,18.0,30.24,NW,321,3.0,5.0,11,0.00,,,0.00,661,weatherlink.com 1.10,2013-01-20 19:36:00,
2013-01-20 11:51:00,77.1,21.0,30.23,NW,309,2.0,4.0,12,0.00,,,0.00,668,weatherlink.com 1.10,2013-01-20 19:51:00,
2013-01-20 12:06:00,78.7,24.0,30.21,South,180,1.0,3.0,13,0.00,,,0.00,675,weatherlink.com 1.10,2013-01-20 20:06:00,
2013-01-20 12:21:00,78.3,25.0,30.20,South,182,0.0,3.0,14,0.00,,,0.00,670,weatherlink.com 1.10,2013-01-20 20:21:00,
2013-01-20 12:36:00,78.4,30.0,30.19,SSE,162,0.0,4.0,17,0.00,,,0.00,663,weatherlink.com 1.10,2013-01-20 20:36:00,
2013-01-20 12:51:00,78.5,30.0,30.18,SE,146,1.0,4.0,17,0.00,,,0.00,654,weatherlink.com 1.10,2013-01-20 20:51:00,
2013-01-20 13:06:00,78.3,27.0,30.18,SW,219,5.0,7.0,15,0.00,,,0.00,640,weatherlink.com 1.10,2013-01-20 21:06:00,
2013-01-20 13:21:00,78.3,27.0,30.17,SW,219,0.0,5.0,15,0.00,,,0.00,621,weatherlink.com 1.10,2013-01-20 21:21:00,
2013-01-20 13:36:00,78.1,25.0,30.17,South,172,2.0,6.0,14,0.00,,,0.00,601,weatherlink.com 1.10,2013-01-20 21:36:00,
2013-01-20 14:06:00,77.8,25.0,30.16,WSW,253,0.0,5.0,14,0.00,,,0.00,541,weatherlink.com 1.10,2013-01-20 22:06:00,
2013-01-20 14:21:00,78.2,23.0,30.15,SW,223,2.0,6.0,13,0.00,,,0.00,510,weatherlink.com 1.10,2013-01-20 22:21:00,
2013-01-20 14:36:00,79.2,24.0,30.15,SW,219,2.0,5.0,13,0.00,,,0.00,476,weatherlink.com 1.10,2013-01-20 22:36:00,
2013-01-20 14:51:00,78.2,23.0,30.15,NW,315,2.0,8.0,13,0.00,,,0.00,436,weatherlink.com 1.10,2013-01-20 22:51:00,
2013-01-20 15:06:00,77.5,21.0,30.14,SW,229,3.0,8.0,12,0.00,,,0.00,394,weatherlink.com 1.10,2013-01-20 23:06:00,
2013-01-20 15:21:00,77.7,23.0,30.14,SW,215,0.0,4.0,13,0.00,,,0.00,346,weatherlink.com 1.10,2013-01-20 23:21:00,
2013-01-20 15:51:00,76.8,20.0,30.15,SSW,207,1.0,3.0,12,0.00,,,0.00,237,weatherlink.com 1.10,2013-01-20 23:51:00,
2013-01-20 16:21:00,74.0,23.0,30.15,WSW,237,0.0,0.0,15,0.00,,,0.00,113,weatherlink.com 1.10,2013-01-21 00:21:00,
2013-01-20 16:52:00,65.0,31.0,30.16,WSW,237,0.0,1.0,28,0.00,,,0.00,14,weatherlink.com 1.10,2013-01-21 00:52:00,
2013-01-20 17:07:00,60.1,30.0,30.16,WSW,238,0.0,1.0,32,0.00,,,0.00,7,weatherlink.com 1.10,2013-01-21 01:07:00,
2013-01-20 17:22:00,57.1,31.0,30.17,West,263,0.0,2.0,38,0.00,,,0.00,0,weatherlink.com 1.10,2013-01-21 01:22:00,
2013-01-20 17:37:00,55.3,31.0,30.18,West,263,0.0,2.0,39,0.00,,,0.00,0,weatherlink.com 1.10,2013-01-21 01:37:00,
2013-01-20 17:52:00,52.8,30.0,30.18,West,263,0.0,1.0,42,0.00,,,0.00,0,weatherlink.com 1.10,2013-01-21 01:52:00,
2013-01-20 18:07:00,51.0,30.0,30.19,West,263,0.0,2.0,45,0.00,,,0.00,0,weatherlink.com 1.10,2013-01-21 02:07:00,
2013-01-20 18:22:00,49.6,30.0,30.20,West,263,0.0,1.0,47,0.00,,,0.00,0,weatherlink.com 1.10,2013-01-21 02:22:00,
2013-01-20 18:52:00,47.3,29.0,30.21,West,263,0.0,2.0,50,0.00,,,0.00,0,weatherlink.com 1.10,2013-01-21 02:52:00,
2013-01-20 19:07:00,46.1,29.0,30.22,West,263,0.0,1.0,52,0.00,,,0.00,0,weatherlink.com 1.10,2013-01-21 03:07:00,
2013-01-20 19:22:00,46.3,28.0,30.22,NW,312,0.0,1.0,50,0.00,,,0.00,0,weatherlink.com 1.10,2013-01-21 03:22:00,
2013-01-20 19:37:00,45.3,29.0,30.22,NW,312,0.0,1.0,53,0.00,,,0.00,0,weatherlink.com 1.10,2013-01-21 03:37:00,
2013-01-20 19:52:00,44.3,28.0,30.23,NW,312,0.0,1.0,54,0.00,,,0.00,0,weatherlink.com 1.10,2013-01-21 03:52:00,
2013-01-20 20:07:00,43.8,28.0,30.23,NW,312,0.0,2.0,54,0.00,,,0.00,0,weatherlink.com 1.10,2013-01-21 04:07:00,
2013-01-20 20:22:00,43.8,28.0,30.23,NW,312,0.0,2.0,54,0.00,,,0.00,0,weatherlink.com 1.10,2013-01-21 04:22:00,
2013-01-20 20:37:00,43.1,28.0,30.23,NW,312,0.0,2.0,55,0.00,,,0.00,0,weatherlink.com 1.10,2013-01-21 04:37:00,
2013-01-20 20:52:00,43.8,28.0,30.24,NW,312,0.0,1.0,54,0.00,,,0.00,0,weatherlink.com 1.10,2013-01-21 04:52:00,
2013-01-20 21:07:00,43.1,28.0,30.24,NW,312,0.0,1.0,55,0.00,,,0.00,0,weatherlink.com 1.10,2013-01-21 05:07:00,
2013-01-20 21:22:00,43.2,27.0,30.24,NNW,348,0.0,2.0,53,0.00,,,0.00,0,weatherlink.com 1.10,2013-01-21 05:22:00,
2013-01-20 21:37:00,42.5,27.0,30.25,NNW,348,0.0,2.0,54,0.00,,,0.00,0,weatherlink.com 1.10,2013-01-21 05:37:00,
2013-01-20 21:52:00,42.7,27.0,30.25,NNW,329,1.0,2.0,54,0.00,,,0.00,0,weatherlink.com 1.10,2013-01-21 05:52:00,
2013-01-20 22:07:00,42.5,26.0,30.25,NNW,329,0.0,2.0,52,0.00,,,0.00,0,weatherlink.com 1.10,2013-01-21 06:07:00,
2013-01-20 22:22:00,42.4,27.0,30.25,NNW,329,0.0,1.0,54,0.00,,,0.00,0,weatherlink.com 1.10,2013-01-21 06:22:00,
2013-01-20 22:37:00,41.4,27.0,30.25,NNW,329,0.0,2.0,57,0.00,,,0.00,0,weatherlink.com 1.10,2013-01-21 06:37:00,
2013-01-20 22:52:00,41.5,26.0,30.25,NNW,329,0.0,2.0,55,0.00,,,0.00,0,weatherlink.com 1.10,2013-01-21 06:52:00,
2013-01-20 23:07:00,40.9,27.0,30.26,NNW,329,0.0,1.0,57,0.00,,,0.00,0,weatherlink.com 1.10,2013-01-21 07:07:00,
2013-01-20 23:22:00,40.4,26.0,30.25,NNW,329,0.0,1.0,57,0.00,,,0.00,0,weatherlink.com 1.10,2013-01-21 07:22:00,
2013-01-20 23:37:00,40.8,25.0,30.25,NNW,329,0.0,1.0,53,0.00,,,0.00,0,weatherlink.com 1.10,2013-01-21 07:37:00,
2013-01-20 23:52:00,41.9,25.0,30.25,NNW,329,0.0,2.0,51,0.00,,,0.00,0,weatherlink.com 1.10,2013-01-21 07:52:00,